Mary Ann Moran — WDF4572 — position and weather

sailwx.info

Track history (hours):
 
Tides and Currents Weather Stations Pressure Air Temp Water Temp Dewpoint Dewpoint Depression Visibility Wind Speed Wind Dir Waves Ship Positions

Mary Ann Moran

Owner: MORAN TOWING CORPORATION, NEW CANAAN, CT. More information available from US FCC via Universal Licensing System and Coast Guard Vessel Documentation Center.

Last reported at 2017-Dec-21 07:43 UTC. Time now 2018-Feb-19 04:18 UTC.
Position N 28°55' W 089°26'.
Warning: this ship's position is 59 days out of date.

Length 188 m; draft 5 m.

Type: . MMSI: 367453420.

Date/timePositionNaut miles runAvg speedWind from/ knotsBaromVisibWave heightAir tempDewpointWater temp
2017-Dec-21 07:43N 28°55' W 089°26'16 8.8
2017-Dec-21 05:55N 29°08' W 089°16'4 9.1
2017-Dec-21 05:28N 29°12' W 089°16'510.0
2017-Dec-21 04:59N 29°16' W 089°20'13 8.9
2017-Dec-21 03:34N 29°22' W 089°32'110.3
2017-Dec-21 03:30N 29°22' W 089°33'4 8.6
2017-Dec-21 03:00N 29°25' W 089°36'4 7.7
2017-Dec-21 02:26N 29°28' W 089°40'1110.0
2017-Dec-21 01:17N 29°36' W 089°50'310.0
2017-Dec-21 00:57N 29°37' W 089°53'  
2017-Dec-15 06:30N 29°35' W 089°50'0 0.0
2017-Dec-15 06:00N 29°35' W 089°50'0 0.0
2017-Dec-15 05:26N 29°35' W 089°50'0 0.0
2017-Dec-15 04:30N 29°35' W 089°50'  
Track history (hours):
 
Tides and Currents Weather Stations Pressure Air Temp Water Temp Dewpoint Dewpoint Depression Visibility Wind Speed Wind Dir Waves Ship Positions

Mary Ann Moran

Owner: MORAN TOWING CORPORATION, NEW CANAAN, CT. More information available from US FCC via Universal Licensing System and Coast Guard Vessel Documentation Center.

Last reported at 2017-Dec-21 07:43 UTC. Time now 2018-Feb-19 04:18 UTC.
Position N 28°55' W 089°26'.
Warning: this ship's position is 59 days out of date.

Length 188 m; draft 5 m.

Type: . MMSI: 367453420.

Date/timePositionNaut miles runAvg speedWind from/ knotsBaromVisibWave heightAir tempDewpointWater temp
2017-Dec-21 07:43N 28°55' W 089°26'16 8.8
2017-Dec-21 05:55N 29°08' W 089°16'4 9.1
2017-Dec-21 05:28N 29°12' W 089°16'510.0
2017-Dec-21 04:59N 29°16' W 089°20'13 8.9
2017-Dec-21 03:34N 29°22' W 089°32'110.3
2017-Dec-21 03:30N 29°22' W 089°33'4 8.6
2017-Dec-21 03:00N 29°25' W 089°36'4 7.7
2017-Dec-21 02:26N 29°28' W 089°40'1110.0
2017-Dec-21 01:17N 29°36' W 089°50'310.0
2017-Dec-21 00:57N 29°37' W 089°53'  
2017-Dec-15 06:30N 29°35' W 089°50'0 0.0
2017-Dec-15 06:00N 29°35' W 089°50'0 0.0
2017-Dec-15 05:26N 29°35' W 089°50'0 0.0
2017-Dec-15 04:30N 29°35' W 089°50'  

Dump ship's entire track history